Time;durP1;ratioP1;P1;durP2;ratioP2;P2;SDS_P1;SDS_P2;PMS_P1;PMS_P2;Temp;Humidity;BMP_temperature;BMP_pressure;BME280_temperature;BME280_humidity;BME280_pressure;Samples;Min_cycle;Max_cycle;Signal;HPM_P1;HPM_P2
2021/08/05 00:00:15;;;;;;;16.35;11.80;;;;;;;14.55;87.96;101406.25;5010640;28;20037;-69
2021/08/05 00:02:40;;;;;;;19.77;12.18;;;;;;;14.52;87.63;101402.84;5009707;28;20475;-69
2021/08/05 00:05:06;;;;;;;13.82;11.23;;;;;;;14.49;87.35;101402.09;5009325;28;20072;-69
2021/08/05 00:07:31;;;;;;;19.15;12.40;;;;;;;14.42;87.68;101393.53;5009398;28;20030;-69
2021/08/05 00:09:57;;;;;;;14.70;12.65;;;;;;;14.38;87.96;101394.59;5010451;28;20026;-68
2021/08/05 00:12:22;;;;;;;16.35;12.55;;;;;;;14.38;87.80;101393.75;5010518;28;20466;-68
2021/08/05 00:14:47;;;;;;;16.58;12.85;;;;;;;14.35;88.17;101390.31;5010678;28;20026;-71
2021/08/05 00:17:12;;;;;;;20.90;12.73;;;;;;;14.36;88.30;101391.16;5009879;28;20026;-69
2021/08/05 00:19:39;;;;;;;14.23;11.65;;;;;;;14.34;88.16;101391.22;5010373;28;20022;-69
2021/08/05 00:22:04;;;;;;;16.67;11.45;;;;;;;14.33;88.18;101389.50;5009822;28;20109;-70
2021/08/05 00:24:29;;;;;;;15.48;12.43;;;;;;;14.30;88.32;101372.94;5010657;28;20062;-69
2021/08/05 00:26:55;;;;;;;15.23;12.25;;;;;;;14.29;88.48;101373.84;5010540;28;20022;-70
2021/08/05 00:29:20;;;;;;;16.02;12.15;;;;;;;14.28;88.63;101378.28;5010002;28;20025;-72
2021/08/05 00:31:45;;;;;;;15.80;11.95;;;;;;;14.29;88.55;101377.34;5009991;28;20021;-68
2021/08/05 00:34:11;;;;;;;14.13;11.23;;;;;;;14.30;88.28;101371.16;5004683;28;20031;-69
2021/08/05 00:36:37;;;;;;;14.13;12.45;;;;;;;14.24;88.51;101371.41;5009918;28;20482;-69
2021/08/05 00:39:03;;;;;;;15.05;12.30;;;;;;;14.20;88.35;101373.31;5012365;28;20406;-68
2021/08/05 00:41:28;;;;;;;16.70;11.80;;;;;;;14.18;88.31;101367.22;5010319;28;20032;-68
2021/08/05 00:43:53;;;;;;;17.48;12.35;;;;;;;14.13;88.58;101365.72;5009895;28;20022;-70
2021/08/05 00:46:19;;;;;;;14.52;12.20;;;;;;;14.08;88.72;101365.00;5009556;28;20340;-68
2021/08/05 00:48:44;;;;;;;15.65;12.70;;;;;;;14.07;88.61;101368.59;5009666;28;20042;-69
2021/08/05 00:51:12;;;;;;;13.10;11.38;;;;;;;14.04;88.85;101365.13;5009546;28;20025;-69
2021/08/05 00:53:39;;;;;;;16.58;11.75;;;;;;;14.08;88.48;101365.00;5009886;28;20521;-68
2021/08/05 00:56:05;;;;;;;12.68;11.30;;;;;;;14.10;87.95;101363.16;5007947;28;20402;-68
2021/08/05 00:58:30;;;;;;;14.63;11.50;;;;;;;14.10;88.15;101363.16;4992199;28;20028;-67
2021/08/05 01:01:00;;;;;;;17.33;12.43;;;;;;;14.04;87.94;101354.59;5008808;28;20121;-68
2021/08/05 01:03:27;;;;;;;15.43;12.40;;;;;;;14.06;87.77;101356.31;5008256;28;20064;-70
2021/08/05 01:06:15;;;;;;;14.23;12.27;;;;;;;14.07;88.17;101358.03;5008184;28;20037;-67
2021/08/05 01:08:43;;;;;;;18.63;12.40;;;;;;;14.00;88.68;101360.03;5009477;28;20057;-68
2021/08/05 01:11:26;;;;;;;14.93;12.50;;;;;;;13.97;89.10;101354.91;5007637;28;20021;-70
2021/08/05 01:14:02;;;;;;;14.73;12.38;;;;;;;13.94;89.20;101352.34;5009279;28;20030;-69
2021/08/05 01:16:29;;;;;;;16.48;12.30;;;;;;;13.92;89.17;101357.69;4991474;28;20026;-67
2021/08/05 01:19:07;;;;;;;18.38;12.70;;;;;;;13.88;89.14;101348.19;5007789;28;20021;-70
2021/08/05 01:21:32;;;;;;;15.35;12.75;;;;;;;13.84;89.43;101346.56;4996080;28;20035;-68
2021/08/05 01:24:02;;;;;;;17.33;13.17;;;;;;;13.82;89.34;101354.56;5007015;28;20386;-69
2021/08/05 01:26:31;;;;;;;16.27;13.38;;;;;;;13.76;89.09;101344.25;5007580;28;20800;-70
2021/08/05 01:28:57;;;;;;;18.77;13.90;;;;;;;13.74;89.61;101346.06;4993991;28;20049;-67
2021/08/05 01:31:24;;;;;;;15.68;12.73;;;;;;;13.75;89.59;101349.59;5006962;28;20045;-68
2021/08/05 01:33:50;;;;;;;16.10;12.95;;;;;;;13.71;89.29;101344.41;4993987;28;20030;-67
2021/08/05 01:36:16;;;;;;;14.85;12.40;;;;;;;13.72;89.15;101340.03;5000908;28;20028;-68
2021/08/05 01:38:42;;;;;;;22.00;14.43;;;;;;;13.64;88.98;101344.72;5031751;28;20486;-68
2021/08/05 01:41:08;;;;;;;16.08;13.82;;;;;;;13.59;89.35;101341.41;4997113;28;20033;-68
2021/08/05 01:43:34;;;;;;;15.57;13.43;;;;;;;13.55;89.37;101346.75;5009540;28;20161;-68
2021/08/05 01:45:59;;;;;;;19.15;14.15;;;;;;;13.54;89.32;101344.19;5001585;28;20394;-68
2021/08/05 01:48:25;;;;;;;16.15;12.73;;;;;;;13.55;89.72;101341.50;5008344;28;20037;-69
2021/08/05 01:50:51;;;;;;;17.40;13.38;;;;;;;13.56;89.41;101337.94;4991578;28;20033;-69
2021/08/05 01:53:17;;;;;;;16.98;14.20;;;;;;;13.57;89.30;101344.09;5008071;28;20364;-67
2021/08/05 01:55:43;;;;;;;18.30;13.98;;;;;;;13.56;89.59;101331.81;5009140;28;20034;-68
2021/08/05 01:58:09;;;;;;;17.98;14.10;;;;;;;13.53;89.73;101334.56;5008036;28;20522;-68
2021/08/05 02:00:34;;;;;;;17.33;13.73;;;;;;;13.51;89.61;101331.16;5009003;28;20446;-69
2021/08/05 02:02:59;;;;;;;20.63;14.07;;;;;;;13.50;89.62;101332.06;5006700;28;20451;-68
2021/08/05 02:05:48;;;;;;;19.65;14.38;;;;;;;13.47;89.77;101333.03;5008397;28;20034;-69
2021/08/05 02:08:17;;;;;;;20.23;13.77;;;;;;;13.46;89.50;101330.44;5008110;28;20022;-69
2021/08/05 02:10:46;;;;;;;15.75;13.27;;;;;;;13.45;89.20;101326.94;5008673;28;20064;-69
2021/08/05 02:13:17;;;;;;;16.75;13.93;;;;;;;13.45;89.30;101328.75;4994476;28;20034;-68
2021/08/05 02:15:45;;;;;;;16.23;13.90;;;;;;;13.42;89.50;101324.44;5019571;28;20494;-69
2021/08/05 02:18:11;;;;;;;17.60;13.93;;;;;;;13.42;89.55;101320.94;5012363;28;20026;-70
2021/08/05 02:20:37;;;;;;;17.95;14.00;;;;;;;13.38;89.24;101318.44;5023152;28;20458;-70
2021/08/05 02:23:02;;;;;;;17.92;13.80;;;;;;;13.36;89.34;101319.38;5008258;28;20022;-69
2021/08/05 02:25:29;;;;;;;16.33;14.55;;;;;;;13.30;89.26;101314.31;5006385;28;20030;-69
2021/08/05 02:27:54;;;;;;;18.60;15.05;;;;;;;13.27;89.73;101312.63;5003744;28;20478;-69
2021/08/05 02:30:20;;;;;;;23.40;14.68;;;;;;;13.27;89.66;101311.78;5006394;28;20026;-72
2021/08/05 02:32:46;;;;;;;18.73;15.30;;;;;;;13.25;89.88;101301.31;4990803;28;20018;-69
2021/08/05 02:35:12;;;;;;;18.08;14.85;;;;;;;13.27;89.83;101306.53;5006144;28;20116;-69
2021/08/05 02:37:38;;;;;;;20.35;14.68;;;;;;;13.27;90.28;101302.09;5007378;28;20061;-69
2021/08/05 02:40:05;;;;;;;16.15;14.45;;;;;;;13.29;89.72;101296.78;5008699;28;20105;-69
2021/08/05 02:42:30;;;;;;;18.48;15.02;;;;;;;13.28;89.55;101295.06;5008377;28;20037;-68
2021/08/05 02:44:57;;;;;;;18.52;14.25;;;;;;;13.27;89.69;101301.25;5007811;28;20092;-68
2021/08/05 02:47:22;;;;;;;16.55;14.18;;;;;;;13.25;89.83;101296.03;5007296;28;20064;-69
2021/08/05 02:49:49;;;;;;;17.73;15.40;;;;;;;13.24;89.43;101299.59;5008485;28;20109;-68
2021/08/05 02:52:14;;;;;;;19.48;13.85;;;;;;;13.21;89.15;101302.34;5008163;28;20029;-68
2021/08/05 02:54:40;;;;;;;17.77;14.93;;;;;;;13.12;88.77;101295.63;5008826;28;20026;-69
2021/08/05 02:57:06;;;;;;;21.10;15.88;;;;;;;13.05;89.42;101287.09;5008461;28;20553;-68
2021/08/05 02:59:31;;;;;;;17.83;15.38;;;;;;;13.01;89.70;101293.38;5009296;28;20482;-68
2021/08/05 03:01:57;;;;;;;18.48;15.90;;;;;;;13.01;89.83;101287.25;5006363;28;20372;-69
2021/08/05 03:04:23;;;;;;;22.75;15.93;;;;;;;12.97;89.68;101283.88;5007950;28;20231;-69
2021/08/05 03:06:48;;;;;;;19.83;15.88;;;;;;;12.95;90.14;101280.44;5003379;28;20038;-67
2021/08/05 03:09:14;;;;;;;18.83;15.32;;;;;;;12.93;90.12;101287.53;4996589;28;20036;-68
2021/08/05 03:11:39;;;;;;;23.98;15.25;;;;;;;12.92;90.32;101288.44;5006201;28;20041;-70
2021/08/05 03:14:04;;;;;;;21.23;15.80;;;;;;;12.89;90.03;101294.66;5007421;28;20316;-67
2021/08/05 03:16:30;;;;;;;19.48;14.90;;;;;;;12.89;90.39;101285.94;5008232;28;20108;-68
2021/08/05 03:18:55;;;;;;;20.05;14.98;;;;;;;12.90;90.32;101287.66;5007545;28;20478;-68
2021/08/05 03:21:20;;;;;;;19.77;16.20;;;;;;;12.89;90.34;101288.56;5008509;28;20471;-68
2021/08/05 03:23:46;;;;;;;23.17;16.05;;;;;;;12.89;90.25;101283.28;5007001;28;20462;-67
2021/08/05 03:26:11;;;;;;;23.30;16.13;;;;;;;12.90;90.39;101285.88;5007590;28;20778;-70
2021/08/05 03:28:36;;;;;;;20.17;16.45;;;;;;;12.91;89.90;101286.72;5007148;28;20374;-69
2021/08/05 03:31:02;;;;;;;18.40;15.52;;;;;;;12.93;90.56;101284.91;5004373;28;20025;-68
2021/08/05 03:33:27;;;;;;;18.70;16.63;;;;;;;12.93;90.08;101284.91;5006367;28;20084;-68
2021/08/05 03:35:52;;;;;;;18.63;15.10;;;;;;;12.97;90.30;101285.66;5007445;28;20026;-70
2021/08/05 03:38:18;;;;;;;18.42;15.05;;;;;;;12.98;89.99;101282.09;5004495;28;20223;-68
2021/08/05 03:40:43;;;;;;;17.77;14.50;;;;;;;12.99;89.93;101276.78;5006250;28;20025;-70
2021/08/05 03:43:08;;;;;;;16.75;14.32;;;;;;;13.02;90.03;101279.31;5006731;28;20037;-67
2021/08/05 03:45:34;;;;;;;17.80;14.85;;;;;;;13.04;90.04;101271.34;5005157;28;20108;-70
2021/08/05 03:47:59;;;;;;;16.27;14.15;;;;;;;13.08;90.05;101273.81;5007001;28;20138;-67
2021/08/05 03:50:24;;;;;;;19.88;15.18;;;;;;;13.11;90.19;101272.84;5004775;28;20097;-67
2021/08/05 03:52:50;;;;;;;20.88;14.57;;;;;;;13.11;89.25;101272.84;5006406;28;20097;-69
2021/08/05 03:55:15;;;;;;;16.52;14.55;;;;;;;13.08;89.74;101263.28;5008147;28;20156;-68
2021/08/05 03:57:41;;;;;;;16.60;14.90;;;;;;;13.11;89.98;101266.72;5010598;28;20101;-67
2021/08/05 04:00:12;;;;;;;18.45;15.07;;;;;;;13.11;90.12;101261.44;4992020;28;20021;-67
2021/08/05 04:02:37;;;;;;;18.48;15.52;;;;;;;13.13;90.17;101260.47;5008943;28;20485;-72
2021/08/05 04:05:03;;;;;;;18.83;16.10;;;;;;;13.16;90.36;101255.09;5009684;28;20100;-67
2021/08/05 04:07:28;;;;;;;18.88;15.70;;;;;;;13.21;90.06;101265.47;5009473;28;20101;-70
2021/08/05 04:09:54;;;;;;;20.40;16.83;;;;;;;13.21;90.14;101254.94;5009726;28;20045;-69
2021/08/05 04:12:19;;;;;;;18.48;15.57;;;;;;;13.20;90.01;101245.31;5008866;28;20104;-67
2021/08/05 04:14:44;;;;;;;20.65;16.85;;;;;;;13.20;90.15;101254.06;5010393;28;20109;-68
2021/08/05 04:17:10;;;;;;;19.52;17.08;;;;;;;13.23;90.12;101253.09;5009864;28;20356;-68
2021/08/05 04:19:35;;;;;;;23.98;19.70;;;;;;;13.28;90.50;101251.13;5010379;28;20464;-72
2021/08/05 04:22:00;;;;;;;21.85;18.33;;;;;;;13.33;90.58;101241.28;5008799;28;20026;-68
2021/08/05 04:24:26;;;;;;;21.88;19.10;;;;;;;13.36;90.32;101241.19;5009942;28;20026;-68
2021/08/05 04:26:52;;;;;;;22.52;16.63;;;;;;;13.39;89.85;101243.72;5010407;28;20585;-71
2021/08/05 04:29:17;;;;;;;20.65;18.08;;;;;;;13.43;89.91;101246.25;5010187;28;20030;-72
2021/08/05 04:31:43;;;;;;;22.48;18.30;;;;;;;13.49;90.04;101248.63;5010002;28;20479;-68
2021/08/05 04:34:08;;;;;;;20.17;16.88;;;;;;;13.52;89.92;101246.75;5010344;28;20119;-68
2021/08/05 04:36:33;;;;;;;23.83;17.60;;;;;;;13.56;90.19;101242.22;5009940;28;20022;-69
2021/08/05 04:38:59;;;;;;;19.88;17.05;;;;;;;13.58;90.30;101245.63;5010267;28;20018;-70
2021/08/05 04:41:24;;;;;;;20.02;16.42;;;;;;;13.61;90.09;101242.91;5009809;28;20501;-71
2021/08/05 04:43:51;;;;;;;18.73;16.60;;;;;;;13.65;89.84;101239.22;5009152;28;20053;-70
2021/08/05 04:46:17;;;;;;;21.75;18.10;;;;;;;13.72;90.19;101235.41;5009906;28;20030;-71
2021/08/05 04:48:42;;;;;;;23.95;18.70;;;;;;;13.78;90.13;101226.41;5008405;28;20026;-66
2021/08/05 04:51:07;;;;;;;20.05;17.17;;;;;;;13.86;89.92;101241.91;5009939;28;20045;-70
2021/08/05 04:53:33;;;;;;;19.77;16.60;;;;;;;13.94;89.73;101241.59;5009079;28;20522;-67
2021/08/05 04:55:58;;;;;;;19.27;15.95;;;;;;;13.99;89.37;101243.16;5010051;28;20029;-69
2021/08/05 04:58:23;;;;;;;18.45;15.95;;;;;;;14.06;88.90;101240.25;5008906;28;20033;-70
2021/08/05 05:00:50;;;;;;;19.45;15.32;;;;;;;14.11;88.88;101246.19;4996163;28;20034;-68
2021/08/05 05:03:15;;;;;;;18.52;14.70;;;;;;;14.20;88.76;101249.31;5009918;28;20026;-68
2021/08/05 05:05:40;;;;;;;19.25;15.57;;;;;;;14.26;88.95;101249.97;5009846;28;20033;-71
2021/08/05 05:08:22;;;;;;;17.10;14.68;;;;;;;14.33;88.87;101249.66;5008976;28;20100;-69
2021/08/05 05:10:51;;;;;;;16.67;14.63;;;;;;;14.37;88.30;101247.75;5008850;28;20504;-71
2021/08/05 05:13:16;;;;;;;18.35;14.48;;;;;;;14.35;87.92;101241.66;5010032;28;20025;-70
2021/08/05 05:15:42;;;;;;;18.63;14.35;;;;;;;14.38;87.88;101246.81;5009219;28;20438;-71
2021/08/05 05:18:08;;;;;;;18.83;15.70;;;;;;;14.42;87.87;101247.56;5010278;28;20030;-68
2021/08/05 05:20:34;;;;;;;18.02;16.13;;;;;;;14.45;87.59;101248.28;4991787;28;20032;-68
2021/08/05 05:23:00;;;;;;;19.52;16.52;;;;;;;14.48;87.86;101239.38;5009523;28;20397;-68
2021/08/05 05:25:25;;;;;;;21.20;17.80;;;;;;;14.51;88.02;101244.50;5007994;28;20084;-69
2021/08/05 05:27:51;;;;;;;23.88;18.13;;;;;;;14.51;88.06;101248.03;5008046;28;20017;-71
2021/08/05 05:30:16;;;;;;;23.58;18.77;;;;;;;14.55;87.77;101247.88;5009362;28;20121;-68
2021/08/05 05:32:43;;;;;;;25.00;18.95;;;;;;;14.50;87.38;101243.66;5009167;28;20037;-68
2021/08/05 05:35:09;;;;;;;24.83;19.67;;;;;;;14.56;88.04;101250.44;5009467;28;20087;-68
2021/08/05 05:37:34;;;;;;;24.52;20.02;;;;;;;14.57;87.67;101246.03;5006736;28;20117;-68
2021/08/05 05:40:00;;;;;;;26.63;20.42;;;;;;;14.60;88.20;101246.75;5008982;28;20026;-68
2021/08/05 05:42:25;;;;;;;26.15;21.30;;;;;;;14.61;88.12;101243.22;5008600;28;20021;-67
2021/08/05 05:44:51;;;;;;;25.67;21.65;;;;;;;14.62;87.76;101247.53;5008603;28;20060;-69
2021/08/05 05:47:16;;;;;;;27.02;20.83;;;;;;;14.63;87.59;101243.97;5009160;28;20518;-69
2021/08/05 05:49:42;;;;;;;24.50;20.27;;;;;;;14.65;87.86;101239.53;4994996;28;20030;-69
2021/08/05 05:52:08;;;;;;;28.42;21.40;;;;;;;14.67;87.62;101236.81;5008548;28;20033;-68
2021/08/05 05:54:33;;;;;;;29.15;22.30;;;;;;;14.68;87.53;101235.91;5008990;28;20026;-69
2021/08/05 05:56:59;;;;;;;29.75;21.75;;;;;;;14.67;87.99;101232.41;5008587;28;20363;-71
2021/08/05 05:59:24;;;;;;;26.38;22.20;;;;;;;14.66;88.21;101233.34;5009283;28;20030;-69
2021/08/05 06:01:49;;;;;;;30.60;23.38;;;;;;;14.65;87.69;101234.25;5006091;28;20057;-70
2021/08/05 06:04:14;;;;;;;27.70;23.05;;;;;;;14.68;87.76;101234.09;5008657;28;20018;-68
2021/08/05 06:06:40;;;;;;;28.88;24.38;;;;;;;14.72;87.93;101228.69;5008445;28;20021;-69
2021/08/05 06:09:05;;;;;;;28.38;23.50;;;;;;;14.73;87.39;101231.25;5008663;28;20054;-70
2021/08/05 06:11:31;;;;;;;31.48;23.85;;;;;;;14.71;87.65;101230.50;5007628;28;20056;-68
2021/08/05 06:13:56;;;;;;;28.20;22.98;;;;;;;14.72;87.81;101233.97;5007394;28;20058;-70
2021/08/05 06:16:22;;;;;;;29.38;23.90;;;;;;;14.73;87.75;101233.06;5007935;28;20052;-70
2021/08/05 06:18:48;;;;;;;31.13;24.58;;;;;;;14.74;87.75;101227.72;5006338;28;20030;-69
2021/08/05 06:21:13;;;;;;;27.88;24.88;;;;;;;14.82;88.07;101235.28;5006343;28;20368;-69
2021/08/05 06:23:38;;;;;;;28.55;21.77;;;;;;;14.98;89.01;101230.16;5005117;28;20033;-67
2021/08/05 06:26:04;;;;;;;26.10;21.92;;;;;;;15.08;87.07;101230.63;5006230;28;20018;-68
2021/08/05 06:28:33;;;;;;;24.95;21.23;;;;;;;15.26;87.88;101221.00;5007129;28;20057;-69
2021/08/05 06:30:58;;;;;;;26.65;21.35;;;;;;;15.42;87.07;101218.50;5007263;28;20096;-68
2021/08/05 06:33:23;;;;;;;24.10;20.60;;;;;;;15.56;86.57;101231.91;5007577;28;20113;-68
2021/08/05 06:35:51;;;;;;;23.55;20.33;;;;;;;15.64;85.19;101227.13;5006445;28;20053;-69
2021/08/05 06:38:17;;;;;;;26.38;19.75;;;;;;;15.78;85.57;101230.88;5003399;28;20497;-70
2021/08/05 06:40:43;;;;;;;21.20;17.23;;;;;;;15.96;83.19;101224.72;5006148;28;20096;-69
2021/08/05 06:43:08;;;;;;;17.80;15.43;;;;;;;16.07;82.03;101228.63;4996143;28;20029;-68
2021/08/05 06:45:33;;;;;;;22.70;18.85;;;;;;;16.10;82.36;101226.69;5004790;28;20482;-69
2021/08/05 06:47:59;;;;;;;19.75;17.50;;;;;;;16.17;81.74;101231.66;5007728;28;20025;-68
2021/08/05 06:50:24;;;;;;;17.55;15.38;;;;;;;16.24;82.09;101228.63;5007632;28;20022;-68
2021/08/05 06:52:51;;;;;;;19.95;16.73;;;;;;;16.35;81.12;101230.72;5007130;28;20080;-71
2021/08/05 06:55:16;;;;;;;20.13;16.70;;;;;;;16.52;81.04;101224.56;5007640;28;20028;-69
2021/08/05 06:57:41;;;;;;;21.20;16.92;;;;;;;16.56;80.00;101223.47;5002591;28;20116;-68
2021/08/05 07:00:07;;;;;;;23.70;17.38;;;;;;;16.64;80.40;101227.53;5004373;28;20124;-68
2021/08/05 07:02:32;;;;;;;21.75;16.20;;;;;;;16.72;78.89;101228.81;5005894;28;20105;-70
2021/08/05 07:05:02;;;;;;;19.20;16.67;;;;;;;16.84;78.62;101229.97;4998880;28;20061;-69
2021/08/05 07:07:28;;;;;;;22.05;18.65;;;;;;;16.79;79.03;101226.69;4997945;28;20467;-68
2021/08/05 07:09:53;;;;;;;21.50;17.73;;;;;;;16.81;78.70;101227.47;5005779;28;20030;-68
2021/08/05 07:12:19;;;;;;;23.95;17.38;;;;;;;16.91;78.23;101220.78;4998234;28;20041;-70
2021/08/05 07:14:44;;;;;;;19.60;17.50;;;;;;;17.04;78.29;101217.47;5007013;28;20026;-68
2021/08/05 07:17:09;;;;;;;19.90;15.50;;;;;;;17.19;78.08;101221.94;5006435;28;20029;-71
2021/08/05 07:19:35;;;;;;;18.65;15.20;;;;;;;17.46;75.62;101217.84;5006782;28;20053;-69
2021/08/05 07:22:00;;;;;;;20.15;15.80;;;;;;;17.51;75.47;101218.44;5005597;28;20081;-69
2021/08/05 07:24:26;;;;;;;18.98;15.75;;;;;;;17.61;75.59;101213.47;5011720;28;20029;-71
2021/08/05 07:26:51;;;;;;;18.23;15.20;;;;;;;17.63;74.98;101208.97;5007556;28;20028;-69
2021/08/05 07:29:16;;;;;;;17.58;14.18;;;;;;;17.68;74.08;101206.88;5008807;28;20022;-69
2021/08/05 07:31:42;;;;;;;16.30;14.07;;;;;;;17.79;73.88;101203.63;5009458;28;20022;-69
2021/08/05 07:34:07;;;;;;;20.65;15.02;;;;;;;17.78;74.12;101200.09;5006888;28;20026;-69
2021/08/05 07:36:32;;;;;;;19.83;15.70;;;;;;;17.81;74.77;101210.56;5002174;28;20030;-69
2021/08/05 07:38:58;;;;;;;17.17;13.98;;;;;;;17.89;74.35;101208.28;5009780;28;20060;-69
2021/08/05 07:41:23;;;;;;;18.13;15.02;;;;;;;17.93;73.44;101208.13;5011188;28;20025;-69
2021/08/05 07:43:49;;;;;;;17.88;14.18;;;;;;;17.97;72.61;101204.38;5007657;28;20021;-70
2021/08/05 07:46:14;;;;;;;19.10;16.48;;;;;;;17.79;73.71;101201.81;5010774;28;20115;-69
2021/08/05 07:48:40;;;;;;;18.60;14.43;;;;;;;17.94;73.65;101197.44;5009984;28;20026;-69
2021/08/05 07:51:06;;;;;;;19.73;14.38;;;;;;;18.12;73.13;101202.63;5009081;28;20026;-69
2021/08/05 07:53:31;;;;;;;16.85;14.43;;;;;;;18.08;72.79;101195.78;5009555;28;20549;-69
2021/08/05 07:55:56;;;;;;;20.92;15.15;;;;;;;18.22;72.31;101198.47;5010839;28;20018;-68
2021/08/05 07:58:22;;;;;;;16.60;14.80;;;;;;;18.47;71.52;101200.53;5009876;28;20025;-69
2021/08/05 08:00:47;;;;;;;20.60;14.77;;;;;;;18.45;71.74;101193.59;5010208;28;20026;-69
2021/08/05 08:03:13;;;;;;;19.50;14.98;;;;;;;18.46;71.00;101195.31;5009755;28;20022;-69
2021/08/05 08:05:40;;;;;;;16.90;14.40;;;;;;;18.60;71.71;101197.13;5009885;28;20017;-69
2021/08/05 08:08:06;;;;;;;18.63;14.85;;;;;;;18.69;71.85;101197.41;5009182;28;20030;-69
2021/08/05 08:10:31;;;;;;;15.43;13.23;;;;;;;18.85;70.71;101197.31;5009245;28;20026;-68
2021/08/05 08:12:57;;;;;;;16.48;13.43;;;;;;;18.78;69.87;101197.78;5008201;28;20030;-68
2021/08/05 08:15:24;;;;;;;21.48;13.98;;;;;;;18.86;68.78;101201.66;5009114;28;20447;-69
2021/08/05 08:17:51;;;;;;;16.20;13.73;;;;;;;18.93;67.44;101196.00;5007923;28;20117;-69
2021/08/05 08:20:16;;;;;;;18.13;14.05;;;;;;;19.02;67.05;101195.44;5007395;28;20132;-70
2021/08/05 08:22:42;;;;;;;20.70;13.93;;;;;;;19.21;66.16;101194.28;4991179;28;20462;-68
2021/08/05 08:25:08;;;;;;;16.10;14.07;;;;;;;19.35;65.91;101197.75;5008203;28;20076;-69
2021/08/05 08:27:33;;;;;;;16.58;13.63;;;;;;;19.42;66.05;101190.22;5008588;28;20120;-69
2021/08/05 08:29:59;;;;;;;17.70;14.30;;;;;;;19.72;64.48;101186.53;5009272;28;20041;-68
2021/08/05 08:32:24;;;;;;;16.83;13.40;;;;;;;20.00;64.11;101188.22;5009242;28;20430;-68
2021/08/05 08:34:50;;;;;;;28.05;12.68;;;;;;;20.79;62.69;101188.19;5008492;28;20030;-70
2021/08/05 08:37:15;;;;;;;15.68;12.75;;;;;;;21.47;59.39;101181.59;5010143;28;20060;-68
2021/08/05 08:39:40;;;;;;;19.30;14.00;;;;;;;21.60;58.43;101177.09;5007430;28;20539;-69
2021/08/05 08:42:08;;;;;;;17.02;14.10;;;;;;;21.53;58.42;101170.47;5009405;28;20020;-68
2021/08/05 08:44:33;;;;;;;18.60;14.93;;;;;;;21.68;58.59;101180.06;5008298;28;20385;-69
2021/08/05 08:47:00;;;;;;;20.23;13.93;;;;;;;21.98;58.13;101173.38;5010237;28;20080;-69
2021/08/05 08:49:25;;;;;;;17.48;14.13;;;;;;;22.80;57.31;101175.09;5007647;28;20026;-68
2021/08/05 08:51:52;;;;;;;17.75;12.63;;;;;;;23.77;51.95;101174.41;5008314;28;20053;-70
2021/08/05 08:54:18;;;;;;;17.98;14.88;;;;;;;23.91;51.73;101175.91;5024825;28;20429;-69
2021/08/05 08:56:44;;;;;;;20.38;15.38;;;;;;;24.11;49.75;101176.09;5007159;28;20026;-70
2021/08/05 08:59:10;;;;;;;18.25;14.50;;;;;;;24.97;50.16;101170.47;5008391;28;20018;-69
2021/08/05 09:01:39;;;;;;;16.95;14.02;;;;;;;24.80;48.48;101167.44;5007015;28;20030;-70
2021/08/05 09:04:08;;;;;;;19.67;13.45;;;;;;;25.40;47.28;101168.47;5006543;28;20026;-68
2021/08/05 09:06:35;;;;;;;21.33;13.18;;;;;;;25.90;46.22;101160.25;5006036;28;20030;-71
2021/08/05 09:09:00;;;;;;;15.93;13.43;;;;;;;25.34;45.07;101158.25;4999539;28;20494;-69
2021/08/05 09:11:25;;;;;;;16.25;13.45;;;;;;;25.27;45.27;101150.75;5007642;28;20114;-69
2021/08/05 09:13:51;;;;;;;19.60;12.52;;;;;;;25.68;43.64;101150.66;5008409;28;20029;-69
2021/08/05 09:16:31;;;;;;;18.73;11.98;;;;;;;25.10;44.51;101151.44;5003446;28;20057;-71
2021/08/05 09:19:16;;;;;;;13.98;11.38;;;;;;;25.08;45.72;101151.56;5005940;28;20450;-70
2021/08/05 09:21:52;;;;;;;13.68;10.88;;;;;;;25.89;46.94;101141.59;4980251;28;20026;-70
2021/08/05 09:24:26;;;;;;;17.50;10.45;;;;;;;26.04;44.10;101139.31;5007106;28;20025;-67
2021/08/05 09:26:56;;;;;;;15.55;11.35;;;;;;;25.91;41.91;101131.53;5005748;28;20056;-68
2021/08/05 09:29:23;;;;;;;15.30;11.20;;;;;;;26.31;40.23;101132.31;4988847;28;20113;-69
2021/08/05 09:31:51;;;;;;;15.73;11.23;;;;;;;26.20;41.68;101130.69;5005365;28;20030;-69
2021/08/05 09:34:19;;;;;;;16.27;11.60;;;;;;;26.56;41.78;101128.97;5007264;28;20025;-68
2021/08/05 09:36:45;;;;;;;16.27;11.85;;;;;;;26.15;43.16;101123.06;5004973;28;20026;-69
2021/08/05 09:39:18;;;;;;;20.38;11.93;;;;;;;27.05;42.09;101117.13;5018517;28;20053;-67
2021/08/05 09:42:01;;;;;;;12.95;11.27;;;;;;;26.96;40.37;101118.88;5006566;28;20038;-67
2021/08/05 09:44:41;;;;;;;14.05;11.25;;;;;;;27.36;38.46;101114.94;5004508;28;20022;-69
2021/08/05 09:47:09;;;;;;;13.70;10.95;;;;;;;27.04;39.49;101116.28;5004541;28;20037;-67
2021/08/05 09:49:39;;;;;;;14.27;11.93;;;;;;;27.39;38.90;101116.47;5002681;28;20044;-68
2021/08/05 09:52:06;;;;;;;12.48;11.18;;;;;;;26.72;38.52;101112.19;5002792;28;20085;-67
2021/08/05 09:54:42;;;;;;;17.88;12.82;;;;;;;27.10;38.60;101106.75;5001717;28;20032;-70
2021/08/05 09:57:08;;;;;;;21.92;11.68;;;;;;;26.90;37.98;101109.59;5006656;28;20037;-67
2021/08/05 09:59:34;;;;;;;14.10;10.63;;;;;;;27.22;40.31;101116.28;5006314;28;20564;-66
2021/08/05 10:02:07;;;;;;;13.35;10.23;;;;;;;27.79;39.14;101103.53;5004433;28;20029;-69
2021/08/05 10:04:33;;;;;;;16.45;9.52;;;;;;;28.56;37.31;101105.50;4998660;28;20026;-71
2021/08/05 10:07:08;;;;;;;13.60;10.00;;;;;;;26.87;37.44;101099.13;5005217;28;20394;-69
2021/08/05 10:09:35;;;;;;;11.02;9.30;;;;;;;27.79;36.64;101103.53;5004074;28;20026;-67
2021/08/05 10:12:18;;;;;;;14.00;9.70;;;;;;;28.43;36.06;101104.09;5005244;28;20498;-68
2021/08/05 10:14:45;;;;;;;17.55;9.93;;;;;;;28.53;36.09;101098.59;4988500;28;20112;-67
2021/08/05 10:17:11;;;;;;;12.88;8.95;;;;;;;28.98;36.15;101096.56;5004111;28;20030;-67
2021/08/05 10:19:41;;;;;;;12.48;9.48;;;;;;;28.78;35.79;101104.94;5006324;28;20033;-68
2021/08/05 10:22:08;;;;;;;12.93;9.75;;;;;;;28.09;36.67;101096.00;5005009;28;20021;-67
2021/08/05 10:24:39;;;;;;;13.65;10.57;;;;;;;27.73;37.25;101096.06;5005317;28;20112;-67
2021/08/05 10:27:06;;;;;;;17.65;10.23;;;;;;;27.58;37.78;101085.84;4988811;28;20471;-68
2021/08/05 10:29:31;;;;;;;12.75;9.38;;;;;;;28.55;35.90;101093.00;4987920;28;20029;-67
2021/08/05 10:31:57;;;;;;;12.60;9.77;;;;;;;27.11;37.10;101092.28;5015848;28;20406;-67
2021/08/05 10:34:23;;;;;;;17.30;9.10;;;;;;;27.40;38.01;101085.88;5004536;28;20459;-70
2021/08/05 10:36:50;;;;;;;13.00;8.35;;;;;;;27.70;36.23;101087.28;5006814;28;20576;-67
2021/08/05 10:39:15;;;;;;;11.93;8.32;;;;;;;27.60;34.50;101086.53;5006664;28;20125;-68
2021/08/05 10:41:41;;;;;;;13.63;7.55;;;;;;;27.18;35.32;101082.59;5008848;28;20490;-67
2021/08/05 10:44:07;;;;;;;13.63;9.15;;;;;;;27.26;37.46;101072.91;5009337;28;20382;-68
2021/08/05 10:46:33;;;;;;;13.27;10.27;;;;;;;26.84;36.93;101077.91;5010038;28;20467;-68
2021/08/05 10:49:03;;;;;;;13.52;8.60;;;;;;;27.34;35.54;101067.63;5009719;28;20022;-68
2021/08/05 10:51:38;;;;;;;11.55;8.55;;;;;;;27.45;38.26;101070.09;5008793;28;20033;-68
2021/08/05 10:54:04;;;;;;;10.98;7.28;;;;;;;28.69;34.99;101065.44;5007786;28;20045;-70
2021/08/05 10:56:30;;;;;;;11.57;7.45;;;;;;;28.83;35.92;101053.16;5006537;28;20036;-68
2021/08/05 10:59:07;;;;;;;13.32;7.60;;;;;;;28.97;33.77;101048.97;5008426;28;20030;-68
2021/08/05 11:01:50;;;;;;;10.32;7.07;;;;;;;29.52;34.91;101042.09;5006370;28;20034;-69
2021/08/05 11:04:34;;;;;;;12.02;8.40;;;;;;;29.68;33.38;101046.59;5010198;28;20436;-68
2021/08/05 11:07:24;;;;;;;11.77;7.20;;;;;;;29.26;34.87;101037.69;5011516;28;20034;-68